sensor_id;sensor_type;location;lat;lon;timestamp;P1;durP1;ratioP1;P2;durP2;ratioP2
58528;SDS011;44322;52.968;5.816;2022-10-22T00:00:32;8.40;;;6.75;;
58528;SDS011;44322;52.968;5.816;2022-10-22T00:02:58;12.45;;;7.40;;
58528;SDS011;44322;52.968;5.816;2022-10-22T00:05:24;10.25;;;7.18;;
58528;SDS011;44322;52.968;5.816;2022-10-22T00:07:50;14.77;;;7.70;;
58528;SDS011;44322;52.968;5.816;2022-10-22T00:10:16;8.48;;;6.75;;
58528;SDS011;44322;52.968;5.816;2022-10-22T00:12:43;7.43;;;6.00;;
58528;SDS011;44322;52.968;5.816;2022-10-22T00:15:09;12.77;;;7.57;;
58528;SDS011;44322;52.968;5.816;2022-10-22T00:17:36;12.00;;;7.55;;
58528;SDS011;44322;52.968;5.816;2022-10-22T00:20:02;12.40;;;7.25;;
58528;SDS011;44322;52.968;5.816;2022-10-22T00:22:28;9.50;;;6.43;;
58528;SDS011;44322;52.968;5.816;2022-10-22T00:24:55;8.70;;;6.18;;
58528;SDS011;44322;52.968;5.816;2022-10-22T00:27:21;7.88;;;6.28;;
58528;SDS011;44322;52.968;5.816;2022-10-22T00:29:47;9.80;;;6.38;;
58528;SDS011;44322;52.968;5.816;2022-10-22T00:32:13;13.25;;;7.47;;
58528;SDS011;44322;52.968;5.816;2022-10-22T00:34:39;9.50;;;7.50;;
58528;SDS011;44322;52.968;5.816;2022-10-22T00:37:05;10.60;;;7.38;;
58528;SDS011;44322;52.968;5.816;2022-10-22T00:39:32;11.05;;;7.88;;
58528;SDS011;44322;52.968;5.816;2022-10-22T00:42:02;11.68;;;8.40;;
58528;SDS011;44322;52.968;5.816;2022-10-22T00:47:43;11.50;;;7.95;;
58528;SDS011;44322;52.968;5.816;2022-10-22T00:50:26;11.52;;;8.48;;
58528;SDS011;44322;52.968;5.816;2022-10-22T00:52:53;12.52;;;9.10;;
58528;SDS011;44322;52.968;5.816;2022-10-22T00:55:20;14.20;;;8.90;;
58528;SDS011;44322;52.968;5.816;2022-10-22T00:57:47;16.40;;;9.63;;
58528;SDS011;44322;52.968;5.816;2022-10-22T01:00:14;12.95;;;8.65;;
58528;SDS011;44322;52.968;5.816;2022-10-22T01:02:40;12.07;;;8.55;;
58528;SDS011;44322;52.968;5.816;2022-10-22T01:05:07;11.57;;;8.25;;
58528;SDS011;44322;52.968;5.816;2022-10-22T01:07:35;17.10;;;9.25;;
58528;SDS011;44322;52.968;5.816;2022-10-22T01:10:22;11.20;;;7.97;;
58528;SDS011;44322;52.968;5.816;2022-10-22T01:21:35;11.82;;;8.30;;
58528;SDS011;44322;52.968;5.816;2022-10-22T01:27:19;11.90;;;8.20;;
58528;SDS011;44322;52.968;5.816;2022-10-22T01:30:06;12.15;;;8.20;;
58528;SDS011;44322;52.968;5.816;2022-10-22T01:32:55;13.43;;;8.43;;
58528;SDS011;44322;52.968;5.816;2022-10-22T01:35:57;13.10;;;8.05;;
58528;SDS011;44322;52.968;5.816;2022-10-22T01:38:24;13.10;;;8.25;;
58528;SDS011;44322;52.968;5.816;2022-10-22T01:41:06;13.32;;;8.85;;
58528;SDS011;44322;52.968;5.816;2022-10-22T01:43:59;11.95;;;8.02;;
58528;SDS011;44322;52.968;5.816;2022-10-22T01:46:34;13.77;;;7.53;;
58528;SDS011;44322;52.968;5.816;2022-10-22T01:49:09;10.85;;;7.32;;
58528;SDS011;44322;52.968;5.816;2022-10-22T01:52:06;13.32;;;8.18;;
58528;SDS011;44322;52.968;5.816;2022-10-22T01:57:52;11.30;;;7.75;;
58528;SDS011;44322;52.968;5.816;2022-10-22T02:00:48;13.07;;;7.40;;
58528;SDS011;44322;52.968;5.816;2022-10-22T02:03:26;12.07;;;7.80;;
58528;SDS011;44322;52.968;5.816;2022-10-22T02:06:02;10.68;;;7.53;;
58528;SDS011;44322;52.968;5.816;2022-10-22T02:08:36;13.70;;;7.53;;
58528;SDS011;44322;52.968;5.816;2022-10-22T02:11:11;10.85;;;7.10;;
58528;SDS011;44322;52.968;5.816;2022-10-22T02:13:48;11.30;;;7.85;;
58528;SDS011;44322;52.968;5.816;2022-10-22T02:16:22;11.30;;;7.45;;
58528;SDS011;44322;52.968;5.816;2022-10-22T02:19:42;10.48;;;7.00;;
58528;SDS011;44322;52.968;5.816;2022-10-22T02:22:46;12.57;;;8.13;;
58528;SDS011;44322;52.968;5.816;2022-10-22T02:25:13;11.43;;;7.75;;
58528;SDS011;44322;52.968;5.816;2022-10-22T02:30:41;10.77;;;7.25;;
58528;SDS011;44322;52.968;5.816;2022-10-22T02:33:44;12.05;;;7.20;;
58528;SDS011;44322;52.968;5.816;2022-10-22T02:36:20;12.35;;;6.30;;
58528;SDS011;44322;52.968;5.816;2022-10-22T02:39:04;9.88;;;7.00;;
58528;SDS011;44322;52.968;5.816;2022-10-22T02:41:42;11.48;;;6.85;;
58528;SDS011;44322;52.968;5.816;2022-10-22T02:44:13;10.32;;;6.63;;
58528;SDS011;44322;52.968;5.816;2022-10-22T02:46:41;9.32;;;6.43;;
58528;SDS011;44322;52.968;5.816;2022-10-22T02:49:31;10.82;;;6.60;;
58528;SDS011;44322;52.968;5.816;2022-10-22T02:52:03;11.52;;;6.93;;
58528;SDS011;44322;52.968;5.816;2022-10-22T02:54:35;12.02;;;6.65;;
58528;SDS011;44322;52.968;5.816;2022-10-22T02:57:07;8.38;;;6.20;;
58528;SDS011;44322;52.968;5.816;2022-10-22T02:59:40;12.48;;;7.03;;
58528;SDS011;44322;52.968;5.816;2022-10-22T03:02:09;12.40;;;6.55;;
58528;SDS011;44322;52.968;5.816;2022-10-22T03:04:42;9.23;;;6.05;;
58528;SDS011;44322;52.968;5.816;2022-10-22T03:07:31;10.07;;;6.18;;
58528;SDS011;44322;52.968;5.816;2022-10-22T03:10:06;9.98;;;6.15;;
58528;SDS011;44322;52.968;5.816;2022-10-22T03:12:40;11.13;;;6.03;;
58528;SDS011;44322;52.968;5.816;2022-10-22T03:15:11;8.05;;;5.70;;
58528;SDS011;44322;52.968;5.816;2022-10-22T03:17:38;9.05;;;6.10;;
58528;SDS011;44322;52.968;5.816;2022-10-22T03:20:07;11.40;;;6.15;;
58528;SDS011;44322;52.968;5.816;2022-10-22T03:22:55;10.50;;;5.90;;
58528;SDS011;44322;52.968;5.816;2022-10-22T03:25:38;11.90;;;6.32;;
58528;SDS011;44322;52.968;5.816;2022-10-22T03:31:07;10.20;;;5.55;;
58528;SDS011;44322;52.968;5.816;2022-10-22T03:33:37;9.77;;;5.75;;
58528;SDS011;44322;52.968;5.816;2022-10-22T03:36:03;8.52;;;5.85;;
58528;SDS011;44322;52.968;5.816;2022-10-22T03:38:58;11.30;;;6.15;;
58528;SDS011;44322;52.968;5.816;2022-10-22T03:41:31;8.05;;;5.95;;
58528;SDS011;44322;52.968;5.816;2022-10-22T03:44:05;11.68;;;6.10;;
58528;SDS011;44322;52.968;5.816;2022-10-22T03:46:40;11.05;;;5.82;;
58528;SDS011;44322;52.968;5.816;2022-10-22T03:49:35;10.60;;;5.60;;
58528;SDS011;44322;52.968;5.816;2022-10-22T03:52:15;11.43;;;6.20;;
58528;SDS011;44322;52.968;5.816;2022-10-22T03:58:09;7.15;;;5.22;;
58528;SDS011;44322;52.968;5.816;2022-10-22T04:01:02;10.50;;;5.72;;
58528;SDS011;44322;52.968;5.816;2022-10-22T04:03:53;10.32;;;6.38;;
58528;SDS011;44322;52.968;5.816;2022-10-22T04:06:58;11.68;;;5.80;;
58528;SDS011;44322;52.968;5.816;2022-10-22T04:09:46;6.07;;;5.15;;
58528;SDS011;44322;52.968;5.816;2022-10-22T04:12:32;11.30;;;5.88;;
58528;SDS011;44322;52.968;5.816;2022-10-22T04:15:00;15.77;;;6.60;;
58528;SDS011;44322;52.968;5.816;2022-10-22T04:17:45;9.57;;;5.90;;
58528;SDS011;44322;52.968;5.816;2022-10-22T04:23:07;10.70;;;5.50;;
58528;SDS011;44322;52.968;5.816;2022-10-22T04:25:37;9.02;;;6.00;;
58528;SDS011;44322;52.968;5.816;2022-10-22T04:28:11;9.80;;;5.70;;
58528;SDS011;44322;52.968;5.816;2022-10-22T04:33:16;10.98;;;5.32;;
58528;SDS011;44322;52.968;5.816;2022-10-22T04:35:50;10.57;;;5.65;;
58528;SDS011;44322;52.968;5.816;2022-10-22T04:38:16;11.82;;;5.88;;
58528;SDS011;44322;52.968;5.816;2022-10-22T04:40:51;10.02;;;6.13;;
58528;SDS011;44322;52.968;5.816;2022-10-22T04:43:23;9.40;;;5.90;;
58528;SDS011;44322;52.968;5.816;2022-10-22T04:50:04;11.48;;;6.10;;
58528;SDS011;44322;52.968;5.816;2022-10-22T04:52:43;8.07;;;5.18;;
58528;SDS011;44322;52.968;5.816;2022-10-22T04:55:13;10.10;;;6.00;;
58528;SDS011;44322;52.968;5.816;2022-10-22T04:57:40;10.00;;;6.15;;
58528;SDS011;44322;52.968;5.816;2022-10-22T05:00:07;10.95;;;5.82;;
58528;SDS011;44322;52.968;5.816;2022-10-22T05:02:37;11.65;;;5.68;;
58528;SDS011;44322;52.968;5.816;2022-10-22T05:05:31;8.73;;;5.53;;
58528;SDS011;44322;52.968;5.816;2022-10-22T05:08:01;9.30;;;5.70;;
58528;SDS011;44322;52.968;5.816;2022-10-22T05:10:34;9.55;;;5.47;;
58528;SDS011;44322;52.968;5.816;2022-10-22T05:13:04;9.85;;;5.85;;
58528;SDS011;44322;52.968;5.816;2022-10-22T05:15:33;10.02;;;6.18;;
58528;SDS011;44322;52.968;5.816;2022-10-22T05:18:06;9.10;;;5.35;;
58528;SDS011;44322;52.968;5.816;2022-10-22T05:20:31;9.27;;;5.35;;
58528;SDS011;44322;52.968;5.816;2022-10-22T05:23:07;11.70;;;5.63;;
58528;SDS011;44322;52.968;5.816;2022-10-22T05:25:40;11.32;;;6.00;;
58528;SDS011;44322;52.968;5.816;2022-10-22T05:28:10;8.60;;;5.85;;
58528;SDS011;44322;52.968;5.816;2022-10-22T05:30:56;12.85;;;5.57;;
58528;SDS011;44322;52.968;5.816;2022-10-22T05:33:27;10.38;;;5.60;;
58528;SDS011;44322;52.968;5.816;2022-10-22T05:36:03;10.63;;;5.75;;
58528;SDS011;44322;52.968;5.816;2022-10-22T05:38:39;8.10;;;5.63;;
58528;SDS011;44322;52.968;5.816;2022-10-22T05:41:21;10.00;;;5.72;;
58528;SDS011;44322;52.968;5.816;2022-10-22T05:44:14;12.18;;;5.47;;
58528;SDS011;44322;52.968;5.816;2022-10-22T05:48:04;12.77;;;5.85;;
58528;SDS011;44322;52.968;5.816;2022-10-22T05:55:15;10.25;;;5.38;;
58528;SDS011;44322;52.968;5.816;2022-10-22T05:58:11;10.57;;;5.38;;
58528;SDS011;44322;52.968;5.816;2022-10-22T06:01:06;12.68;;;6.00;;
58528;SDS011;44322;52.968;5.816;2022-10-22T06:04:40;9.77;;;5.68;;
58528;SDS011;44322;52.968;5.816;2022-10-22T06:08:01;14.23;;;5.80;;
58528;SDS011;44322;52.968;5.816;2022-10-22T06:11:23;12.88;;;6.30;;
58528;SDS011;44322;52.968;5.816;2022-10-22T06:18:41;8.20;;;5.60;;
58528;SDS011;44322;52.968;5.816;2022-10-22T06:21:18;12.45;;;6.05;;
58528;SDS011;44322;52.968;5.816;2022-10-22T06:24:15;12.15;;;6.70;;
58528;SDS011;44322;52.968;5.816;2022-10-22T06:27:09;10.93;;;6.18;;
58528;SDS011;44322;52.968;5.816;2022-10-22T06:30:06;14.77;;;6.20;;
58528;SDS011;44322;52.968;5.816;2022-10-22T06:32:53;9.68;;;5.63;;
58528;SDS011;44322;52.968;5.816;2022-10-22T06:36:07;12.30;;;5.60;;
58528;SDS011;44322;52.968;5.816;2022-10-22T06:39:19;13.73;;;6.63;;
58528;SDS011;44322;52.968;5.816;2022-10-22T06:42:14;14.98;;;6.07;;
58528;SDS011;44322;52.968;5.816;2022-10-22T06:49:35;9.70;;;5.70;;
58528;SDS011;44322;52.968;5.816;2022-10-22T06:52:01;13.07;;;6.65;;
58528;SDS011;44322;52.968;5.816;2022-10-22T06:54:30;14.45;;;6.95;;
58528;SDS011;44322;52.968;5.816;2022-10-22T06:56:56;13.07;;;7.20;;
58528;SDS011;44322;52.968;5.816;2022-10-22T06:59:22;16.17;;;6.43;;
58528;SDS011;44322;52.968;5.816;2022-10-22T07:01:47;12.40;;;6.75;;
58528;SDS011;44322;52.968;5.816;2022-10-22T07:04:13;11.80;;;6.43;;
58528;SDS011;44322;52.968;5.816;2022-10-22T07:06:40;12.93;;;6.63;;
58528;SDS011;44322;52.968;5.816;2022-10-22T07:09:07;12.07;;;6.68;;
58528;SDS011;44322;52.968;5.816;2022-10-22T07:11:38;14.88;;;6.63;;
58528;SDS011;44322;52.968;5.816;2022-10-22T07:14:07;12.07;;;6.00;;
58528;SDS011;44322;52.968;5.816;2022-10-22T07:16:33;9.57;;;6.60;;
58528;SDS011;44322;52.968;5.816;2022-10-22T07:18:59;12.38;;;6.70;;
58528;SDS011;44322;52.968;5.816;2022-10-22T07:21:26;13.32;;;6.32;;
58528;SDS011;44322;52.968;5.816;2022-10-22T07:23:52;11.90;;;6.20;;
58528;SDS011;44322;52.968;5.816;2022-10-22T07:26:18;13.43;;;6.22;;
58528;SDS011;44322;52.968;5.816;2022-10-22T07:28:45;11.80;;;6.18;;
58528;SDS011;44322;52.968;5.816;2022-10-22T07:31:12;14.98;;;6.72;;
58528;SDS011;44322;52.968;5.816;2022-10-22T07:33:38;13.20;;;6.93;;
58528;SDS011;44322;52.968;5.816;2022-10-22T07:36:05;10.52;;;6.07;;
58528;SDS011;44322;52.968;5.816;2022-10-22T07:38:33;11.70;;;6.60;;
58528;SDS011;44322;52.968;5.816;2022-10-22T07:41:01;11.40;;;5.97;;
58528;SDS011;44322;52.968;5.816;2022-10-22T07:43:30;10.43;;;6.28;;
58528;SDS011;44322;52.968;5.816;2022-10-22T07:46:03;11.57;;;6.65;;
58528;SDS011;44322;52.968;5.816;2022-10-22T07:48:31;11.60;;;6.05;;
58528;SDS011;44322;52.968;5.816;2022-10-22T07:51:06;10.00;;;5.53;;
58528;SDS011;44322;52.968;5.816;2022-10-22T07:53:35;13.30;;;6.20;;
58528;SDS011;44322;52.968;5.816;2022-10-22T07:56:01;10.20;;;5.72;;
58528;SDS011;44322;52.968;5.816;2022-10-22T07:58:28;9.98;;;6.13;;
58528;SDS011;44322;52.968;5.816;2022-10-22T08:00:55;12.93;;;6.00;;
58528;SDS011;44322;52.968;5.816;2022-10-22T08:05:48;9.45;;;5.45;;
58528;SDS011;44322;52.968;5.816;2022-10-22T08:08:15;15.95;;;5.97;;
58528;SDS011;44322;52.968;5.816;2022-10-22T08:10:44;16.13;;;6.03;;
58528;SDS011;44322;52.968;5.816;2022-10-22T08:13:11;10.02;;;5.55;;
58528;SDS011;44322;52.968;5.816;2022-10-22T08:15:37;11.63;;;5.22;;
58528;SDS011;44322;52.968;5.816;2022-10-22T08:18:03;13.23;;;5.53;;
58528;SDS011;44322;52.968;5.816;2022-10-22T08:20:29;12.35;;;6.07;;
58528;SDS011;44322;52.968;5.816;2022-10-22T08:22:55;9.65;;;4.75;;
58528;SDS011;44322;52.968;5.816;2022-10-22T08:25:22;14.52;;;5.40;;
58528;SDS011;44322;52.968;5.816;2022-10-22T08:27:48;10.18;;;5.40;;
58528;SDS011;44322;52.968;5.816;2022-10-22T08:30:14;13.07;;;5.40;;
58528;SDS011;44322;52.968;5.816;2022-10-22T08:32:40;16.83;;;5.07;;
58528;SDS011;44322;52.968;5.816;2022-10-22T08:35:06;14.00;;;5.05;;
58528;SDS011;44322;52.968;5.816;2022-10-22T08:37:32;13.85;;;5.28;;
58528;SDS011;44322;52.968;5.816;2022-10-22T08:39:58;9.98;;;4.75;;
58528;SDS011;44322;52.968;5.816;2022-10-22T08:42:50;10.65;;;5.07;;
58528;SDS011;44322;52.968;5.816;2022-10-22T08:45:38;9.45;;;4.55;;
58528;SDS011;44322;52.968;5.816;2022-10-22T08:48:25;11.90;;;4.85;;
58528;SDS011;44322;52.968;5.816;2022-10-22T08:51:06;13.40;;;5.40;;
58528;SDS011;44322;52.968;5.816;2022-10-22T08:54:21;8.98;;;4.55;;
58528;SDS011;44322;52.968;5.816;2022-10-22T08:56:26;11.55;;;4.70;;
58528;SDS011;44322;52.968;5.816;2022-10-22T08:58:55;11.80;;;5.22;;
58528;SDS011;44322;52.968;5.816;2022-10-22T09:01:32;10.15;;;4.50;;
58528;SDS011;44322;52.968;5.816;2022-10-22T09:04:12;10.43;;;4.35;;
58528;SDS011;44322;52.968;5.816;2022-10-22T09:06:52;10.82;;;4.10;;
58528;SDS011;44322;52.968;5.816;2022-10-22T09:09:22;11.55;;;4.38;;
58528;SDS011;44322;52.968;5.816;2022-10-22T09:11:51;12.20;;;4.10;;
58528;SDS011;44322;52.968;5.816;2022-10-22T09:14:21;8.57;;;3.47;;
58528;SDS011;44322;52.968;5.816;2022-10-22T09:19:41;7.38;;;3.85;;
58528;SDS011;44322;52.968;5.816;2022-10-22T09:22:29;9.63;;;3.72;;
58528;SDS011;44322;52.968;5.816;2022-10-22T09:27:42;10.07;;;3.95;;
58528;SDS011;44322;52.968;5.816;2022-10-22T09:30:12;8.98;;;4.00;;
58528;SDS011;44322;52.968;5.816;2022-10-22T09:32:42;10.30;;;4.28;;
58528;SDS011;44322;52.968;5.816;2022-10-22T09:35:10;8.95;;;4.22;;
58528;SDS011;44322;52.968;5.816;2022-10-22T09:37:45;9.52;;;3.60;;
58528;SDS011;44322;52.968;5.816;2022-10-22T09:40:14;8.60;;;3.80;;
58528;SDS011;44322;52.968;5.816;2022-10-22T09:42:41;9.00;;;4.20;;
58528;SDS011;44322;52.968;5.816;2022-10-22T09:45:17;10.05;;;3.90;;
58528;SDS011;44322;52.968;5.816;2022-10-22T09:47:45;13.02;;;4.20;;
58528;SDS011;44322;52.968;5.816;2022-10-22T09:50:28;10.13;;;4.28;;
58528;SDS011;44322;52.968;5.816;2022-10-22T09:53:37;10.00;;;4.35;;
58528;SDS011;44322;52.968;5.816;2022-10-22T09:56:17;11.18;;;4.53;;
58528;SDS011;44322;52.968;5.816;2022-10-22T09:59:00;12.50;;;5.53;;
58528;SDS011;44322;52.968;5.816;2022-10-22T10:01:27;12.60;;;5.93;;
58528;SDS011;44322;52.968;5.816;2022-10-22T10:04:06;12.23;;;6.30;;
58528;SDS011;44322;52.968;5.816;2022-10-22T10:06:34;14.80;;;7.50;;
58528;SDS011;44322;52.968;5.816;2022-10-22T10:09:13;17.60;;;7.68;;
58528;SDS011;44322;52.968;5.816;2022-10-22T10:11:48;14.40;;;7.35;;
58528;SDS011;44322;52.968;5.816;2022-10-22T10:14:47;13.75;;;6.72;;
58528;SDS011;44322;52.968;5.816;2022-10-22T10:25:30;15.35;;;7.70;;
58528;SDS011;44322;52.968;5.816;2022-10-22T10:30:50;15.32;;;6.97;;
58528;SDS011;44322;52.968;5.816;2022-10-22T10:36:18;11.45;;;6.78;;
58528;SDS011;44322;52.968;5.816;2022-10-22T10:42:00;14.70;;;6.95;;
58528;SDS011;44322;52.968;5.816;2022-10-22T10:44:38;12.55;;;6.68;;
58528;SDS011;44322;52.968;5.816;2022-10-22T10:47:23;12.88;;;6.30;;
58528;SDS011;44322;52.968;5.816;2022-10-22T10:50:15;16.80;;;7.18;;
58528;SDS011;44322;52.968;5.816;2022-10-22T10:56:00;11.45;;;6.47;;
58528;SDS011;44322;52.968;5.816;2022-10-22T11:06:59;12.50;;;5.90;;
58528;SDS011;44322;52.968;5.816;2022-10-22T11:09:33;11.45;;;5.18;;
58528;SDS011;44322;52.968;5.816;2022-10-22T11:12:04;8.48;;;5.15;;
58528;SDS011;44322;52.968;5.816;2022-10-22T11:14:54;10.63;;;5.32;;
58528;SDS011;44322;52.968;5.816;2022-10-22T11:17:41;13.50;;;4.97;;
58528;SDS011;44322;52.968;5.816;2022-10-22T11:20:24;16.38;;;5.20;;
58528;SDS011;44322;52.968;5.816;2022-10-22T11:23:08;10.43;;;4.22;;
58528;SDS011;44322;52.968;5.816;2022-10-22T11:25:46;6.65;;;3.65;;
58528;SDS011;44322;52.968;5.816;2022-10-22T11:28:32;10.90;;;4.03;;
58528;SDS011;44322;52.968;5.816;2022-10-22T11:31:07;12.63;;;4.35;;
58528;SDS011;44322;52.968;5.816;2022-10-22T11:33:41;7.13;;;3.83;;
58528;SDS011;44322;52.968;5.816;2022-10-22T11:36:10;10.95;;;4.07;;
58528;SDS011;44322;52.968;5.816;2022-10-22T11:38:37;8.25;;;4.00;;
58528;SDS011;44322;52.968;5.816;2022-10-22T11:41:11;9.48;;;3.50;;
58528;SDS011;44322;52.968;5.816;2022-10-22T11:48:59;7.20;;;2.75;;
58528;SDS011;44322;52.968;5.816;2022-10-22T11:51:37;8.80;;;3.00;;
58528;SDS011;44322;52.968;5.816;2022-10-22T11:56:57;6.13;;;2.45;;
58528;SDS011;44322;52.968;5.816;2022-10-22T11:59:57;7.70;;;2.55;;
58528;SDS011;44322;52.968;5.816;2022-10-22T12:02:38;5.70;;;2.00;;
58528;SDS011;44322;52.968;5.816;2022-10-22T12:44:30;8.82;;;2.65;;
58528;SDS011;44322;52.968;5.816;2022-10-22T12:46:56;12.00;;;2.63;;
58528;SDS011;44322;52.968;5.816;2022-10-22T12:49:33;5.45;;;1.90;;
58528;SDS011;44322;52.968;5.816;2022-10-22T12:52:04;8.57;;;2.17;;
58528;SDS011;44322;52.968;5.816;2022-10-22T12:54:46;9.80;;;2.28;;
58528;SDS011;44322;52.968;5.816;2022-10-22T12:57:17;8.68;;;2.15;;
58528;SDS011;44322;52.968;5.816;2022-10-22T12:59:50;10.68;;;2.50;;
58528;SDS011;44322;52.968;5.816;2022-10-22T13:05:02;7.18;;;1.73;;
58528;SDS011;44322;52.968;5.816;2022-10-22T13:07:50;6.00;;;1.83;;
58528;SDS011;44322;52.968;5.816;2022-10-22T13:10:19;6.75;;;1.80;;
58528;SDS011;44322;52.968;5.816;2022-10-22T13:12:53;4.00;;;1.35;;
58528;SDS011;44322;52.968;5.816;2022-10-22T13:18:03;6.72;;;1.75;;
58528;SDS011;44322;52.968;5.816;2022-10-22T13:20:57;4.80;;;1.25;;
58528;SDS011;44322;52.968;5.816;2022-10-22T13:23:32;6.10;;;1.67;;
58528;SDS011;44322;52.968;5.816;2022-10-22T13:26:15;5.70;;;1.63;;
58528;SDS011;44322;52.968;5.816;2022-10-22T13:28:54;4.30;;;1.30;;
58528;SDS011;44322;52.968;5.816;2022-10-22T13:31:22;6.15;;;1.48;;
58528;SDS011;44322;52.968;5.816;2022-10-22T13:33:51;3.40;;;1.20;;
58528;SDS011;44322;52.968;5.816;2022-10-22T13:36:20;7.15;;;1.63;;
58528;SDS011;44322;52.968;5.816;2022-10-22T13:38:47;5.85;;;1.77;;
58528;SDS011;44322;52.968;5.816;2022-10-22T13:41:18;5.25;;;1.90;;
58528;SDS011;44322;52.968;5.816;2022-10-22T13:44:02;5.95;;;1.50;;
58528;SDS011;44322;52.968;5.816;2022-10-22T13:46:28;8.88;;;1.38;;
58528;SDS011;44322;52.968;5.816;2022-10-22T13:48:55;4.30;;;1.88;;
58528;SDS011;44322;52.968;5.816;2022-10-22T13:51:28;6.53;;;1.35;;
58528;SDS011;44322;52.968;5.816;2022-10-22T13:54:12;8.07;;;1.48;;
58528;SDS011;44322;52.968;5.816;2022-10-22T13:57:23;5.72;;;1.58;;
58528;SDS011;44322;52.968;5.816;2022-10-22T13:59:50;8.02;;;1.40;;
58528;SDS011;44322;52.968;5.816;2022-10-22T14:02:21;5.72;;;1.55;;
58528;SDS011;44322;52.968;5.816;2022-10-22T14:04:50;5.93;;;1.70;;
58528;SDS011;44322;52.968;5.816;2022-10-22T14:07:17;11.23;;;1.77;;
58528;SDS011;44322;52.968;5.816;2022-10-22T14:09:43;8.32;;;1.60;;
58528;SDS011;44322;52.968;5.816;2022-10-22T14:12:10;9.18;;;1.50;;
58528;SDS011;44322;52.968;5.816;2022-10-22T14:14:40;8.75;;;1.55;;
58528;SDS011;44322;52.968;5.816;2022-10-22T14:17:10;10.68;;;2.03;;
58528;SDS011;44322;52.968;5.816;2022-10-22T14:19:44;9.10;;;1.30;;
58528;SDS011;44322;52.968;5.816;2022-10-22T14:22:16;7.85;;;1.67;;
58528;SDS011;44322;52.968;5.816;2022-10-22T14:24:43;8.63;;;1.70;;
58528;SDS011;44322;52.968;5.816;2022-10-22T14:27:11;9.43;;;2.05;;
58528;SDS011;44322;52.968;5.816;2022-10-22T14:32:14;17.92;;;2.55;;
58528;SDS011;44322;52.968;5.816;2022-10-22T14:34:44;10.63;;;2.15;;
58528;SDS011;44322;52.968;5.816;2022-10-22T14:37:15;9.85;;;1.80;;
58528;SDS011;44322;52.968;5.816;2022-10-22T14:39:43;11.15;;;2.45;;
58528;SDS011;44322;52.968;5.816;2022-10-22T14:42:11;12.88;;;2.10;;
58528;SDS011;44322;52.968;5.816;2022-10-22T14:44:39;13.88;;;2.10;;
58528;SDS011;44322;52.968;5.816;2022-10-22T14:47:04;11.93;;;2.40;;
58528;SDS011;44322;52.968;5.816;2022-10-22T14:49:30;10.85;;;2.28;;
58528;SDS011;44322;52.968;5.816;2022-10-22T14:51:56;14.23;;;2.75;;
58528;SDS011;44322;52.968;5.816;2022-10-22T14:54:22;13.65;;;3.13;;
58528;SDS011;44322;52.968;5.816;2022-10-22T14:56:48;14.43;;;1.95;;
58528;SDS011;44322;52.968;5.816;2022-10-22T14:59:13;11.30;;;2.30;;
58528;SDS011;44322;52.968;5.816;2022-10-22T15:01:39;9.38;;;1.88;;
58528;SDS011;44322;52.968;5.816;2022-10-22T15:04:07;14.25;;;2.35;;
58528;SDS011;44322;52.968;5.816;2022-10-22T15:06:33;9.88;;;2.20;;
58528;SDS011;44322;52.968;5.816;2022-10-22T15:08:59;14.35;;;2.35;;
58528;SDS011;44322;52.968;5.816;2022-10-22T15:11:25;11.13;;;1.98;;
58528;SDS011;44322;52.968;5.816;2022-10-22T15:13:51;11.82;;;2.30;;
58528;SDS011;44322;52.968;5.816;2022-10-22T15:16:17;12.45;;;1.95;;
58528;SDS011;44322;52.968;5.816;2022-10-22T15:18:43;11.35;;;2.50;;
58528;SDS011;44322;52.968;5.816;2022-10-22T15:21:19;15.23;;;2.60;;
58528;SDS011;44322;52.968;5.816;2022-10-22T15:23:46;15.13;;;3.15;;
58528;SDS011;44322;52.968;5.816;2022-10-22T15:26:13;14.98;;;2.78;;
58528;SDS011;44322;52.968;5.816;2022-10-22T15:28:39;9.93;;;2.30;;
58528;SDS011;44322;52.968;5.816;2022-10-22T15:31:06;11.10;;;2.65;;
58528;SDS011;44322;52.968;5.816;2022-10-22T15:33:32;16.67;;;2.63;;
58528;SDS011;44322;52.968;5.816;2022-10-22T15:36:07;13.85;;;2.55;;
58528;SDS011;44322;52.968;5.816;2022-10-22T15:38:35;13.83;;;3.03;;
58528;SDS011;44322;52.968;5.816;2022-10-22T15:41:02;18.73;;;3.42;;
58528;SDS011;44322;52.968;5.816;2022-10-22T15:43:29;9.20;;;2.53;;
58528;SDS011;44322;52.968;5.816;2022-10-22T15:46:12;10.13;;;2.30;;
58528;SDS011;44322;52.968;5.816;2022-10-22T15:48:43;15.82;;;5.82;;
58528;SDS011;44322;52.968;5.816;2022-10-22T15:51:11;16.70;;;5.57;;
58528;SDS011;44322;52.968;5.816;2022-10-22T15:53:42;11.55;;;4.13;;
58528;SDS011;44322;52.968;5.816;2022-10-22T15:56:09;16.92;;;5.85;;
58528;SDS011;44322;52.968;5.816;2022-10-22T15:58:38;11.50;;;3.33;;
58528;SDS011;44322;52.968;5.816;2022-10-22T16:01:08;13.05;;;3.38;;
58528;SDS011;44322;52.968;5.816;2022-10-22T16:03:35;15.63;;;3.67;;
58528;SDS011;44322;52.968;5.816;2022-10-22T16:06:02;12.90;;;2.53;;
58528;SDS011;44322;52.968;5.816;2022-10-22T16:08:29;17.73;;;3.30;;
58528;SDS011;44322;52.968;5.816;2022-10-22T16:10:55;15.05;;;3.00;;
58528;SDS011;44322;52.968;5.816;2022-10-22T16:13:21;14.60;;;3.33;;
58528;SDS011;44322;52.968;5.816;2022-10-22T16:15:49;13.63;;;3.55;;
58528;SDS011;44322;52.968;5.816;2022-10-22T16:18:15;15.38;;;4.32;;
58528;SDS011;44322;52.968;5.816;2022-10-22T16:20:42;19.45;;;8.48;;
58528;SDS011;44322;52.968;5.816;2022-10-22T16:23:07;22.63;;;7.90;;
58528;SDS011;44322;52.968;5.816;2022-10-22T16:25:37;17.40;;;5.05;;
58528;SDS011;44322;52.968;5.816;2022-10-22T16:28:04;15.30;;;3.92;;
58528;SDS011;44322;52.968;5.816;2022-10-22T16:30:34;16.33;;;3.65;;
58528;SDS011;44322;52.968;5.816;2022-10-22T16:33:01;15.02;;;4.50;;
58528;SDS011;44322;52.968;5.816;2022-10-22T16:35:28;14.23;;;3.43;;
58528;SDS011;44322;52.968;5.816;2022-10-22T16:37:54;14.30;;;3.92;;
58528;SDS011;44322;52.968;5.816;2022-10-22T16:40:20;17.02;;;3.95;;
58528;SDS011;44322;52.968;5.816;2022-10-22T16:42:47;14.70;;;3.70;;
58528;SDS011;44322;52.968;5.816;2022-10-22T16:45:14;14.00;;;4.67;;
58528;SDS011;44322;52.968;5.816;2022-10-22T16:47:40;16.80;;;4.95;;
58528;SDS011;44322;52.968;5.816;2022-10-22T16:50:10;15.30;;;3.63;;
58528;SDS011;44322;52.968;5.816;2022-10-22T16:52:35;17.92;;;4.57;;
58528;SDS011;44322;52.968;5.816;2022-10-22T16:55:02;15.23;;;3.90;;
58528;SDS011;44322;52.968;5.816;2022-10-22T16:57:28;14.88;;;4.30;;
58528;SDS011;44322;52.968;5.816;2022-10-22T16:59:56;15.00;;;3.55;;
58528;SDS011;44322;52.968;5.816;2022-10-22T17:02:21;16.77;;;3.97;;
58528;SDS011;44322;52.968;5.816;2022-10-22T17:04:47;21.23;;;5.00;;
58528;SDS011;44322;52.968;5.816;2022-10-22T17:07:13;15.77;;;3.67;;
58528;SDS011;44322;52.968;5.816;2022-10-22T17:09:39;14.02;;;4.03;;
58528;SDS011;44322;52.968;5.816;2022-10-22T17:12:05;12.50;;;3.47;;
58528;SDS011;44322;52.968;5.816;2022-10-22T17:14:30;14.30;;;3.80;;
58528;SDS011;44322;52.968;5.816;2022-10-22T17:16:56;12.90;;;4.03;;
58528;SDS011;44322;52.968;5.816;2022-10-22T17:19:22;17.95;;;4.30;;
58528;SDS011;44322;52.968;5.816;2022-10-22T17:21:48;14.23;;;3.33;;
58528;SDS011;44322;52.968;5.816;2022-10-22T17:24:16;14.05;;;3.72;;
58528;SDS011;44322;52.968;5.816;2022-10-22T17:26:42;14.43;;;3.45;;
58528;SDS011;44322;52.968;5.816;2022-10-22T17:29:09;11.30;;;3.35;;
58528;SDS011;44322;52.968;5.816;2022-10-22T17:31:36;13.18;;;3.22;;
58528;SDS011;44322;52.968;5.816;2022-10-22T17:34:04;17.33;;;3.88;;
58528;SDS011;44322;52.968;5.816;2022-10-22T17:38:57;15.73;;;3.15;;
58528;SDS011;44322;52.968;5.816;2022-10-22T17:41:29;13.13;;;3.65;;
58528;SDS011;44322;52.968;5.816;2022-10-22T17:43:57;10.75;;;3.28;;